In Rescue
 
Open Full Screen Window  High Contrast Mode
Wind Gusting 19 knots
15
May 13, 2021 9:58 AM CDT
Weather Information
Wind Direction
  200 °
Wind Speed
  15 kt (17 mph)
Wind Gust
  19 kt (22 mph)
Altimeter
30.31 in
Visibility
10 SM
Temperature
17° C
63° F
Dewpoint
-02° C
28° F
Humidity
27%
1hr Rain Fall
00.00 in.
24hr Rain Fall
00.00 in.
Sky Condition
Clear
VFR

METAR KTKC 131458Z AUTO 20015G19KT 10SM CLR 17/M02 A3031 RMK AO2 T01701020

FAA Disclaimer: The data displayed is for advisory purposes only and is not to be used for flight planning or operations.